Time;durP1;ratioP1;P1;durP2;ratioP2;P2;SDS_P1;SDS_P2;PMS_P1;PMS_P2;Temp;Humidity;BMP_temperature;BMP_pressure;BME280_temperature;BME280_humidity;BME280_pressure;Samples;Min_cycle;Max_cycle;Signal;HPM_P1;HPM_P2
2021/03/02 00:02:08;;;;;;;15.60;8.38;;;;;;;;;;4935089;29;20047;-71
2021/03/02 00:04:34;;;;;;;15.75;8.55;;;;;;;;;;4936242;29;20052;-71
2021/03/02 00:07:01;;;;;;;16.23;8.15;;;;;;;;;;4918693;29;20052;-71
2021/03/02 00:09:27;;;;;;;18.83;9.65;;;;;;;;;;4944909;29;20059;-71
2021/03/02 00:11:54;;;;;;;15.02;7.80;;;;;;;;;;4955119;28;20055;-71
2021/03/02 00:14:20;;;;;;;14.57;7.97;;;;;;;;;;4955157;28;20517;-71
2021/03/02 00:16:58;;;;;;;15.57;7.43;;;;;;;;;;4954604;28;20058;-71
2021/03/02 00:19:36;;;;;;;12.25;7.55;;;;;;;;;;4955589;29;20062;-71
2021/03/02 00:22:09;;;;;;;20.38;8.27;;;;;;;;;;4955335;28;20051;-71
2021/03/02 00:24:36;;;;;;;13.40;8.38;;;;;;;;;;4938722;29;20419;-71
2021/03/02 00:27:04;;;;;;;14.50;7.80;;;;;;;;;;4953083;29;20510;-71
2021/03/02 00:29:30;;;;;;;13.75;7.38;;;;;;;;;;4953164;29;20053;-71
2021/03/02 00:31:56;;;;;;;14.60;8.25;;;;;;;;;;4953555;29;20057;-71
2021/03/02 00:34:23;;;;;;;14.43;8.77;;;;;;;;;;4953834;29;20422;-71
2021/03/02 00:36:49;;;;;;;14.23;8.20;;;;;;;;;;4954199;28;20055;-71
2021/03/02 00:39:15;;;;;;;14.00;8.07;;;;;;;;;;4947112;28;20056;-71
2021/03/02 00:41:43;;;;;;;13.13;7.85;;;;;;;;;;4935660;29;20047;-71
2021/03/02 00:44:09;;;;;;;14.55;8.00;;;;;;;;;;4934870;29;20059;-71
2021/03/02 00:46:35;;;;;;;13.10;8.15;;;;;;;;;;4934774;29;20055;-71
2021/03/02 00:49:01;;;;;;;11.52;7.07;;;;;;;;;;4939694;29;20126;-71
2021/03/02 00:51:28;;;;;;;12.73;7.63;;;;;;;;;;4953422;29;20055;-71
2021/03/02 00:53:54;;;;;;;11.63;7.30;;;;;;;;;;4954447;28;20051;-71
2021/03/02 00:56:20;;;;;;;13.32;7.95;;;;;;;;;;4954019;28;20054;-71
2021/03/02 00:58:46;;;;;;;14.80;7.28;;;;;;;;;;4938509;28;20062;-71
2021/03/02 01:01:13;;;;;;;16.30;7.95;;;;;;;;;;4934968;29;20059;-71
2021/03/02 01:03:40;;;;;;;12.65;7.95;;;;;;;;;;4935280;29;20055;-71
2021/03/02 01:06:06;;;;;;;13.20;7.35;;;;;;;;;;4934445;29;20048;-71
2021/03/02 01:08:32;;;;;;;15.23;7.53;;;;;;;;;;4935352;29;20088;-71
2021/03/02 01:10:58;;;;;;;15.13;7.82;;;;;;;;;;4934893;29;20060;-71
2021/03/02 01:13:24;;;;;;;14.07;7.28;;;;;;;;;;4935003;29;20510;-71
2021/03/02 01:15:50;;;;;;;13.13;7.32;;;;;;;;;;4934359;29;20058;-71
2021/03/02 01:18:17;;;;;;;12.57;7.72;;;;;;;;;;4945759;29;20085;-71
2021/03/02 01:20:43;;;;;;;13.60;7.45;;;;;;;;;;4954121;28;20047;-71
2021/03/02 01:23:10;;;;;;;14.10;7.75;;;;;;;;;;4953948;28;20126;-71
2021/03/02 01:25:36;;;;;;;14.48;7.55;;;;;;;;;;4953269;28;20047;-71
2021/03/02 01:28:02;;;;;;;13.32;7.60;;;;;;;;;;4953918;28;20498;-71
2021/03/02 01:30:28;;;;;;;13.65;7.38;;;;;;;;;;4953969;28;20418;-71
2021/03/02 01:32:54;;;;;;;10.57;6.47;;;;;;;;;;4954022;28;20051;-71
2021/03/02 01:35:20;;;;;;;11.30;7.25;;;;;;;;;;4953117;28;20055;-71
2021/03/02 01:37:51;;;;;;;10.93;7.28;;;;;;;;;;4945409;28;20499;-71
2021/03/02 01:40:18;;;;;;;12.18;7.18;;;;;;;;;;4934474;29;20056;-71
2021/03/02 01:42:45;;;;;;;15.65;7.18;;;;;;;;;;4934786;29;20130;-71
2021/03/02 01:45:17;;;;;;;13.68;6.72;;;;;;;;;;4933980;29;20467;-71
2021/03/02 01:47:44;;;;;;;12.15;6.97;;;;;;;;;;4934466;29;20051;-71
2021/03/02 01:50:11;;;;;;;13.23;6.50;;;;;;;;;;4934609;29;20423;-71
2021/03/02 01:52:38;;;;;;;12.00;7.60;;;;;;;;;;4934575;29;20467;-71
2021/03/02 01:55:06;;;;;;;13.52;7.68;;;;;;;;;;4934316;29;20044;-71
2021/03/02 01:57:32;;;;;;;10.65;6.75;;;;;;;;;;4933865;29;20055;-71
2021/03/02 02:00:03;;;;;;;13.57;7.18;;;;;;;;;;4934150;29;20446;-71
2021/03/02 02:02:37;;;;;;;15.98;8.82;;;;;;;;;;4934457;29;20052;-71
2021/03/02 02:05:04;;;;;;;11.38;7.28;;;;;;;;;;4917694;29;20055;-71
2021/03/02 02:07:37;;;;;;;13.20;7.60;;;;;;;;;;4935576;29;20059;-71
2021/03/02 02:10:07;;;;;;;18.40;7.68;;;;;;;;;;4936400;29;20061;-71
2021/03/02 02:12:53;;;;;;;10.52;7.10;;;;;;;;;;4952216;29;20502;-71
2021/03/02 02:15:32;;;;;;;12.13;7.38;;;;;;;;;;4937220;29;20085;-71
2021/03/02 02:18:00;;;;;;;14.10;7.15;;;;;;;;;;4952051;29;20533;-71
2021/03/02 02:20:36;;;;;;;12.70;6.50;;;;;;;;;;4952171;29;20047;-71
2021/03/02 02:23:34;;;;;;;14.80;7.07;;;;;;;;;;4952217;29;20055;-71
2021/03/02 02:26:18;;;;;;;11.75;6.60;;;;;;;;;;4952598;28;20051;-71
2021/03/02 02:28:46;;;;;;;15.35;6.95;;;;;;;;;;4941085;29;20074;-71
2021/03/02 02:31:12;;;;;;;14.02;7.47;;;;;;;;;;4917059;29;20396;-71
2021/03/02 02:33:40;;;;;;;10.77;7.05;;;;;;;;;;4917252;29;20058;-71
2021/03/02 02:36:09;;;;;;;14.27;7.22;;;;;;;;;;4916685;29;20052;-71
2021/03/02 02:38:36;;;;;;;10.90;7.13;;;;;;;;;;4917292;29;20503;-71
2021/03/02 02:41:03;;;;;;;11.85;7.28;;;;;;;;;;4917239;29;20109;-71
2021/03/02 02:43:29;;;;;;;10.13;6.45;;;;;;;;;;4917331;29;20059;-72
2021/03/02 02:45:55;;;;;;;15.35;6.75;;;;;;;;;;4932039;29;20044;-71
2021/03/02 02:48:21;;;;;;;12.18;7.35;;;;;;;;;;4934143;29;20052;-71
2021/03/02 02:50:50;;;;;;;13.00;7.60;;;;;;;;;;4938366;29;20056;-71
2021/03/02 02:53:16;;;;;;;11.88;6.63;;;;;;;;;;4917220;29;20079;-71
2021/03/02 02:55:47;;;;;;;10.52;6.53;;;;;;;;;;4933238;29;20075;-71
2021/03/02 02:58:15;;;;;;;14.32;6.60;;;;;;;;;;4916946;29;20055;-71
2021/03/02 03:00:41;;;;;;;14.95;6.80;;;;;;;;;;4916976;29;20091;-71
2021/03/02 03:03:11;;;;;;;12.70;7.05;;;;;;;;;;4917150;29;20495;-71
2021/03/02 03:05:39;;;;;;;15.32;7.07;;;;;;;;;;4935927;29;20102;-71
2021/03/02 03:08:17;;;;;;;14.32;7.15;;;;;;;;;;4956329;28;20055;-71
2021/03/02 03:10:44;;;;;;;13.23;6.72;;;;;;;;;;4955353;29;20130;-71
2021/03/02 03:13:14;;;;;;;12.18;6.82;;;;;;;;;;4954989;29;20066;-71
2021/03/02 03:15:40;;;;;;;12.70;7.57;;;;;;;;;;4917691;29;20059;-71
2021/03/02 03:18:07;;;;;;;12.13;6.72;;;;;;;;;;4901398;29;20133;-71
2021/03/02 03:20:34;;;;;;;13.02;6.55;;;;;;;;;;4918159;29;20056;-71
2021/03/02 03:23:00;;;;;;;12.93;6.78;;;;;;;;;;4901280;29;20155;-71
2021/03/02 03:25:26;;;;;;;11.63;7.25;;;;;;;;;;4917486;29;20088;-71
2021/03/02 03:27:58;;;;;;;14.52;6.53;;;;;;;;;;4916872;29;20511;-71
2021/03/02 03:30:25;;;;;;;10.70;6.80;;;;;;;;;;4901440;29;20063;-71
2021/03/02 03:32:55;;;;;;;12.13;7.18;;;;;;;;;;4916875;29;20491;-71
2021/03/02 03:35:22;;;;;;;15.75;6.68;;;;;;;;;;4900585;29;20056;-71
2021/03/02 03:37:49;;;;;;;11.52;6.60;;;;;;;;;;4917979;29;20055;-71
2021/03/02 03:40:15;;;;;;;12.32;7.03;;;;;;;;;;4916544;29;20571;-71
2021/03/02 03:42:41;;;;;;;13.52;7.25;;;;;;;;;;4917960;29;20519;-71
2021/03/02 03:45:08;;;;;;;13.18;6.50;;;;;;;;;;4917707;29;20048;-71
2021/03/02 03:47:34;;;;;;;10.90;6.20;;;;;;;;;;4949471;29;20466;-71
2021/03/02 03:50:01;;;;;;;10.85;6.57;;;;;;;;;;4954547;29;20051;-71
2021/03/02 03:52:27;;;;;;;12.60;7.28;;;;;;;;;;4954597;29;20055;-71
2021/03/02 03:54:53;;;;;;;12.35;6.88;;;;;;;;;;4955692;28;20067;-71
2021/03/02 03:57:19;;;;;;;10.50;5.88;;;;;;;;;;4937833;29;20059;-71
2021/03/02 03:59:45;;;;;;;11.85;7.30;;;;;;;;;;4938598;29;20470;-71
2021/03/02 04:02:11;;;;;;;16.80;8.18;;;;;;;;;;4954370;29;20110;-71
2021/03/02 04:04:38;;;;;;;11.15;6.65;;;;;;;;;;4938419;29;20075;-71
2021/03/02 04:07:04;;;;;;;14.45;6.75;;;;;;;;;;4953685;29;20051;-71
2021/03/02 04:09:31;;;;;;;12.65;6.95;;;;;;;;;;4954531;29;20458;-71
2021/03/02 04:11:57;;;;;;;14.45;7.03;;;;;;;;;;4938138;29;20055;-71
2021/03/02 04:14:23;;;;;;;12.98;6.47;;;;;;;;;;4955415;28;20078;-71
2021/03/02 04:16:49;;;;;;;12.25;6.55;;;;;;;;;;4953520;28;20051;-71
2021/03/02 04:19:16;;;;;;;12.73;6.95;;;;;;;;;;4937508;29;20118;-71
2021/03/02 04:21:42;;;;;;;11.43;6.95;;;;;;;;;;4954119;29;20047;-71
2021/03/02 04:24:08;;;;;;;14.52;7.07;;;;;;;;;;4955230;28;20134;-71
2021/03/02 04:26:34;;;;;;;11.90;7.07;;;;;;;;;;4954433;28;20495;-71
2021/03/02 04:29:01;;;;;;;11.45;6.88;;;;;;;;;;4945335;28;20103;-71
2021/03/02 04:31:27;;;;;;;13.57;7.85;;;;;;;;;;4935932;29;20106;-71
2021/03/02 04:33:53;;;;;;;14.23;7.18;;;;;;;;;;4935849;29;20088;-71
2021/03/02 04:36:19;;;;;;;16.00;8.05;;;;;;;;;;4935256;29;20505;-71
2021/03/02 04:38:45;;;;;;;13.18;7.70;;;;;;;;;;4935732;29;20553;-71
2021/03/02 04:41:12;;;;;;;12.95;7.28;;;;;;;;;;4935633;29;20119;-71
2021/03/02 04:43:38;;;;;;;15.00;9.57;;;;;;;;;;4935759;29;20549;-71
2021/03/02 04:46:04;;;;;;;14.38;8.98;;;;;;;;;;4934866;29;20475;-71
2021/03/02 04:48:30;;;;;;;16.33;9.68;;;;;;;;;;4935603;29;20491;-71
2021/03/02 04:50:57;;;;;;;14.15;8.00;;;;;;;;;;4935362;29;20052;-71
2021/03/02 04:53:23;;;;;;;15.55;8.70;;;;;;;;;;4935802;29;20055;-71
2021/03/02 04:55:50;;;;;;;12.73;7.13;;;;;;;;;;4934770;29;20059;-71
2021/03/02 04:58:16;;;;;;;10.20;6.65;;;;;;;;;;4935254;29;20051;-71
2021/03/02 05:00:42;;;;;;;16.63;8.10;;;;;;;;;;4935294;29;20047;-71
2021/03/02 05:03:08;;;;;;;11.80;7.55;;;;;;;;;;4935295;29;20066;-71
2021/03/02 05:05:35;;;;;;;11.73;6.88;;;;;;;;;;4934638;29;20086;-71
2021/03/02 05:08:01;;;;;;;15.10;7.55;;;;;;;;;;4935180;29;20051;-71
2021/03/02 05:10:28;;;;;;;11.63;7.10;;;;;;;;;;4940889;29;20043;-71
2021/03/02 05:12:54;;;;;;;15.07;8.75;;;;;;;;;;4954205;28;20055;-71
2021/03/02 05:15:20;;;;;;;15.27;8.27;;;;;;;;;;4953548;28;20047;-71
2021/03/02 05:17:46;;;;;;;14.55;7.75;;;;;;;;;;4954171;28;20050;-71
2021/03/02 05:20:12;;;;;;;14.18;7.90;;;;;;;;;;4955526;28;20055;-71
2021/03/02 05:22:38;;;;;;;14.82;8.18;;;;;;;;;;4954303;28;20503;-71
2021/03/02 05:25:05;;;;;;;13.40;8.05;;;;;;;;;;4953781;28;20050;-71
2021/03/02 05:27:32;;;;;;;14.30;8.15;;;;;;;;;;4953884;28;20426;-71
2021/03/02 05:29:58;;;;;;;15.27;7.25;;;;;;;;;;4953686;28;20083;-70
2021/03/02 05:32:24;;;;;;;14.05;7.15;;;;;;;;;;4954202;28;20091;-71
2021/03/02 05:34:50;;;;;;;14.70;6.93;;;;;;;;;;4954001;28;20135;-71
2021/03/02 05:37:16;;;;;;;15.20;8.15;;;;;;;;;;4953206;28;20086;-71
2021/03/02 05:39:42;;;;;;;13.93;7.45;;;;;;;;;;4953249;28;20083;-71
2021/03/02 05:42:08;;;;;;;12.43;7.18;;;;;;;;;;4953828;28;20054;-71
2021/03/02 05:44:35;;;;;;;16.85;7.63;;;;;;;;;;4953951;28;20130;-71
2021/03/02 05:47:02;;;;;;;14.30;7.60;;;;;;;;;;4951830;29;20047;-71
2021/03/02 05:49:28;;;;;;;12.38;7.10;;;;;;;;;;4953803;28;20087;-71
2021/03/02 05:51:54;;;;;;;13.70;7.03;;;;;;;;;;4950471;29;20499;-71
2021/03/02 05:54:20;;;;;;;14.70;7.78;;;;;;;;;;4934455;29;20091;-71
2021/03/02 05:56:46;;;;;;;14.32;7.50;;;;;;;;;;4935427;29;20075;-70
2021/03/02 05:59:12;;;;;;;14.90;7.90;;;;;;;;;;4952492;29;20055;-70
2021/03/02 06:01:39;;;;;;;16.15;9.20;;;;;;;;;;4951543;29;20047;-71
2021/03/02 06:04:05;;;;;;;17.10;8.75;;;;;;;;;;4953595;28;20514;-71
2021/03/02 06:06:32;;;;;;;13.65;8.80;;;;;;;;;;4952756;28;20514;-71
2021/03/02 06:08:58;;;;;;;16.90;9.23;;;;;;;;;;4952597;28;20091;-71
2021/03/02 06:11:30;;;;;;;16.58;9.45;;;;;;;;;;4922968;29;20048;-71
2021/03/02 06:13:57;;;;;;;15.93;9.35;;;;;;;;;;4925486;29;20052;-71
2021/03/02 06:16:24;;;;;;;16.48;9.25;;;;;;;;;;4921926;29;20071;-70
2021/03/02 06:18:52;;;;;;;18.27;8.20;;;;;;;;;;4934281;29;20056;-71
2021/03/02 06:21:19;;;;;;;14.60;8.10;;;;;;;;;;4932208;29;21094;-71
2021/03/02 06:23:52;;;;;;;17.17;9.32;;;;;;;;;;4917869;29;20052;-71
2021/03/02 06:26:24;;;;;;;16.55;8.98;;;;;;;;;;4914599;29;20048;-70
2021/03/02 06:28:56;;;;;;;18.90;9.40;;;;;;;;;;4915244;29;20066;-70
2021/03/02 06:31:36;;;;;;;19.95;10.07;;;;;;;;;;4915219;29;20056;-70
2021/03/02 06:34:13;;;;;;;16.13;9.52;;;;;;;;;;4915201;29;20052;-69
2021/03/02 06:37:01;;;;;;;16.13;8.93;;;;;;;;;;4914565;29;20087;-69
2021/03/02 06:39:41;;;;;;;19.92;9.27;;;;;;;;;;4911539;29;20055;-69
2021/03/02 06:42:19;;;;;;;21.73;10.80;;;;;;;;;;4915731;29;20052;-69
2021/03/02 06:44:52;;;;;;;18.33;10.88;;;;;;;;;;4917032;29;20100;-69
2021/03/02 06:47:32;;;;;;;16.85;9.18;;;;;;;;;;4916294;29;20135;-69
2021/03/02 06:49:59;;;;;;;17.23;8.88;;;;;;;;;;4916697;29;20075;-69
2021/03/02 06:52:25;;;;;;;23.90;9.57;;;;;;;;;;4916964;29;20048;-69
2021/03/02 06:54:52;;;;;;;20.38;9.80;;;;;;;;;;4916420;29;20056;-69
2021/03/02 06:57:25;;;;;;;15.73;9.27;;;;;;;;;;4916244;29;20076;-69
2021/03/02 07:00:00;;;;;;;15.85;8.68;;;;;;;;;;4915397;29;20056;-69
2021/03/02 07:02:36;;;;;;;17.88;9.32;;;;;;;;;;4939286;29;20570;-69
2021/03/02 07:05:14;;;;;;;14.95;8.70;;;;;;;;;;4942349;29;20485;-70
2021/03/02 07:07:42;;;;;;;18.98;10.13;;;;;;;;;;4942919;29;20799;-69
2021/03/02 07:10:12;;;;;;;23.60;10.70;;;;;;;;;;4946969;29;20059;-69
2021/03/02 07:12:42;;;;;;;22.35;10.15;;;;;;;;;;4935588;29;20110;-70
2021/03/02 07:15:14;;;;;;;19.90;8.65;;;;;;;;;;4925519;29;20080;-70
2021/03/02 07:17:44;;;;;;;22.75;9.93;;;;;;;;;;4916223;29;20063;-70
2021/03/02 07:20:12;;;;;;;19.13;9.45;;;;;;;;;;4933723;29;20056;-69
2021/03/02 07:22:40;;;;;;;20.88;10.13;;;;;;;;;;4950727;28;20043;-70
2021/03/02 07:25:11;;;;;;;18.33;10.18;;;;;;;;;;4953870;28;20051;-69
2021/03/02 07:27:41;;;;;;;15.93;9.32;;;;;;;;;;4954340;28;20059;-69
2021/03/02 07:30:09;;;;;;;22.08;10.63;;;;;;;;;;4953055;29;20091;-70
2021/03/02 07:32:35;;;;;;;18.52;11.48;;;;;;;;;;4953849;28;20051;-70
2021/03/02 07:35:02;;;;;;;21.10;10.75;;;;;;;;;;4948649;28;20061;-70
2021/03/02 07:37:28;;;;;;;19.85;10.18;;;;;;;;;;4925900;29;20079;-72
2021/03/02 07:40:14;;;;;;;20.15;10.57;;;;;;;;;;4933181;29;20086;-74
2021/03/02 07:42:40;;;;;;;19.25;10.52;;;;;;;;;;4941797;29;20104;-73
2021/03/02 07:45:11;;;;;;;15.50;9.57;;;;;;;;;;4936133;29;20047;-73
2021/03/02 07:47:56;;;;;;;20.05;10.98;;;;;;;;;;4933008;29;20047;-70
2021/03/02 07:50:28;;;;;;;20.27;10.82;;;;;;;;;;4935703;29;20423;-70
2021/03/02 07:53:13;;;;;;;17.58;10.00;;;;;;;;;;4926187;29;20051;-69
2021/03/02 07:55:39;;;;;;;18.42;11.15;;;;;;;;;;4934439;29;20051;-71
2021/03/02 07:58:18;;;;;;;19.90;11.38;;;;;;;;;;4933680;29;20488;-70
2021/03/02 08:00:45;;;;;;;20.02;11.35;;;;;;;;;;4933416;29;20500;-74
2021/03/02 08:03:24;;;;;;;20.27;11.07;;;;;;;;;;4918847;29;20418;-70
2021/03/02 08:06:01;;;;;;;20.98;10.35;;;;;;;;;;4934584;29;20050;-71
2021/03/02 08:08:28;;;;;;;17.98;10.95;;;;;;;;;;4933292;29;20420;-70
2021/03/02 08:10:56;;;;;;;18.95;11.15;;;;;;;;;;4933097;29;20107;-70
2021/03/02 08:13:38;;;;;;;21.55;11.15;;;;;;;;;;4934777;29;20082;-72
2021/03/02 08:16:07;;;;;;;25.52;11.90;;;;;;;;;;4910690;29;20401;-72
2021/03/02 08:18:35;;;;;;;18.88;11.32;;;;;;;;;;4897037;29;20047;-72
2021/03/02 08:21:16;;;;;;;20.50;11.73;;;;;;;;;;4909665;29;20257;-71
2021/03/02 08:23:58;;;;;;;22.80;11.75;;;;;;;;;;4946350;29;20468;-69
2021/03/02 08:26:29;;;;;;;21.42;12.32;;;;;;;;;;4934439;29;20102;-69
2021/03/02 08:29:07;;;;;;;26.48;13.45;;;;;;;;;;4930927;29;20118;-70
2021/03/02 08:31:34;;;;;;;24.27;12.77;;;;;;;;;;4928554;29;20079;-69
2021/03/02 08:34:02;;;;;;;24.40;12.23;;;;;;;;;;4934683;29;20442;-72
2021/03/02 08:36:29;;;;;;;22.98;12.75;;;;;;;;;;4907605;29;20104;-71
2021/03/02 08:38:56;;;;;;;25.23;13.82;;;;;;;;;;4902241;29;20051;-71
2021/03/02 08:41:31;;;;;;;22.33;13.57;;;;;;;;;;4900182;29;20051;-71
2021/03/02 08:43:59;;;;;;;22.17;12.50;;;;;;;;;;4896788;29;20138;-72
2021/03/02 08:46:29;;;;;;;22.95;12.50;;;;;;;;;;4932714;29;20119;-72
2021/03/02 08:48:55;;;;;;;21.73;12.93;;;;;;;;;;4931373;29;20048;-72
2021/03/02 08:51:23;;;;;;;21.77;12.93;;;;;;;;;;4934389;29;20051;-73
2021/03/02 08:53:50;;;;;;;22.98;13.32;;;;;;;;;;4934131;29;20106;-71
2021/03/02 08:56:21;;;;;;;23.35;12.63;;;;;;;;;;4924324;29;20103;-70
2021/03/02 08:58:55;;;;;;;21.40;13.10;;;;;;;;;;4933961;29;20059;-69
2021/03/02 09:01:21;;;;;;;23.48;13.60;;;;;;;;;;4933025;29;20055;-70
2021/03/02 09:03:48;;;;;;;20.50;12.52;;;;;;;;;;4933721;29;20415;-70
2021/03/02 09:06:19;;;;;;;26.08;15.27;;;;;;;;;;4901262;29;20157;-70
2021/03/02 09:09:00;;;;;;;21.77;13.02;;;;;;;;;;4916983;29;20055;-70
2021/03/02 09:11:37;;;;;;;22.23;13.40;;;;;;;;;;4909742;29;20059;-70
2021/03/02 09:14:15;;;;;;;22.17;12.63;;;;;;;;;;4914531;29;20111;-69
2021/03/02 09:16:43;;;;;;;20.40;13.10;;;;;;;;;;4933566;29;20044;-70
2021/03/02 09:19:14;;;;;;;22.83;13.50;;;;;;;;;;4896090;29;20126;-70
2021/03/02 09:21:49;;;;;;;21.10;13.00;;;;;;;;;;4933907;29;20106;-71
2021/03/02 09:24:30;;;;;;;23.85;13.82;;;;;;;;;;4923678;29;20520;-72
2021/03/02 09:27:05;;;;;;;22.00;13.38;;;;;;;;;;4916174;29;20422;-71
2021/03/02 09:29:41;;;;;;;20.00;12.15;;;;;;;;;;4930429;29;20051;-71
2021/03/02 09:32:08;;;;;;;23.25;12.43;;;;;;;;;;4929937;29;20492;-70
2021/03/02 09:34:43;;;;;;;21.98;13.48;;;;;;;;;;4933713;29;20054;-71
2021/03/02 09:37:19;;;;;;;21.73;12.82;;;;;;;;;;4931982;29;20047;-71
2021/03/02 09:40:02;;;;;;;22.27;12.02;;;;;;;;;;4933526;29;20534;-71
2021/03/02 09:42:30;;;;;;;19.60;12.18;;;;;;;;;;4933773;29;20052;-70
2021/03/02 09:45:00;;;;;;;21.80;12.40;;;;;;;;;;4932346;29;20511;-72
2021/03/02 09:47:28;;;;;;;21.77;12.55;;;;;;;;;;4931897;29;20649;-72
2021/03/02 09:49:59;;;;;;;16.63;10.82;;;;;;;;;;4933277;29;20051;-69
2021/03/02 09:52:28;;;;;;;17.88;12.98;;;;;;;;;;4933927;29;20499;-68
2021/03/02 09:55:31;;;;;;;20.27;12.25;;;;;;;;;;4933588;29;20064;-69
2021/03/02 09:58:14;;;;;;;20.83;11.80;;;;;;;;;;4882363;29;20057;-71
2021/03/02 10:00:46;;;;;;;18.98;12.07;;;;;;;;;;4927166;29;20553;-73
2021/03/02 10:03:26;;;;;;;17.70;11.32;;;;;;;;;;4933182;29;20059;-72
2021/03/02 10:06:03;;;;;;;19.33;12.40;;;;;;;;;;4906312;29;20091;-71
2021/03/02 10:08:42;;;;;;;20.42;11.73;;;;;;;;;;4931397;29;20055;-70
2021/03/02 10:11:12;;;;;;;17.92;11.90;;;;;;;;;;4928836;29;20111;-72
2021/03/02 10:13:45;;;;;;;21.08;12.15;;;;;;;;;;4923140;29;20510;-73
2021/03/02 10:16:14;;;;;;;19.60;11.93;;;;;;;;;;4931801;29;20055;-71
2021/03/02 10:18:52;;;;;;;20.25;11.85;;;;;;;;;;4935827;28;20052;-70
2021/03/02 10:21:19;;;;;;;20.10;12.95;;;;;;;;;;4927351;29;20055;-71
2021/03/02 10:23:53;;;;;;;21.48;12.88;;;;;;;;;;4910411;29;20059;-71
2021/03/02 10:26:34;;;;;;;18.63;12.70;;;;;;;;;;4912093;29;20047;-71
2021/03/02 10:29:00;;;;;;;21.95;13.13;;;;;;;;;;4936853;29;20282;-73
2021/03/02 10:31:27;;;;;;;18.02;12.02;;;;;;;;;;4936746;29;20048;-72
2021/03/02 10:33:53;;;;;;;17.92;11.07;;;;;;;;;;4935879;29;20147;-72
2021/03/02 10:36:21;;;;;;;21.30;11.85;;;;;;;;;;4925461;29;20055;-72
2021/03/02 10:38:48;;;;;;;18.67;12.07;;;;;;;;;;4937302;29;20051;-73
2021/03/02 10:41:18;;;;;;;18.50;12.60;;;;;;;;;;4925208;29;20056;-73
2021/03/02 10:43:46;;;;;;;20.35;12.07;;;;;;;;;;4935646;29;20055;-73
2021/03/02 10:46:14;;;;;;;19.73;12.05;;;;;;;;;;4925262;29;20049;-71
2021/03/02 10:48:41;;;;;;;18.98;12.15;;;;;;;;;;4936884;29;20055;-72
2021/03/02 10:51:07;;;;;;;21.02;11.48;;;;;;;;;;4936040;29;20044;-75
2021/03/02 10:53:33;;;;;;;16.75;11.10;;;;;;;;;;4935166;29;20124;-75
2021/03/02 10:55:59;;;;;;;18.92;12.02;;;;;;;;;;4940477;29;20044;-73
2021/03/02 10:58:31;;;;;;;16.67;10.85;;;;;;;;;;4935167;29;20159;-75
2021/03/02 11:01:01;;;;;;;19.23;11.68;;;;;;;;;;4934570;29;20146;-73
2021/03/02 11:03:28;;;;;;;17.63;11.52;;;;;;;;;;4934340;29;20059;-76
2021/03/02 11:05:55;;;;;;;20.70;11.40;;;;;;;;;;4910706;29;20392;-74
2021/03/02 11:08:21;;;;;;;16.30;11.85;;;;;;;;;;4936009;29;20431;-75
2021/03/02 11:10:49;;;;;;;19.02;11.48;;;;;;;;;;4934851;29;20047;-76
2021/03/02 11:13:16;;;;;;;19.40;11.07;;;;;;;;;;4898327;29;20062;-74
2021/03/02 11:15:43;;;;;;;16.13;10.93;;;;;;;;;;4935554;29;20048;-77
2021/03/02 11:18:11;;;;;;;24.27;12.27;;;;;;;;;;4914711;29;20051;-70
2021/03/02 11:20:38;;;;;;;19.10;11.15;;;;;;;;;;4928541;29;20055;-73
2021/03/02 11:23:05;;;;;;;20.00;11.35;;;;;;;;;;4932290;29;20502;-72
2021/03/02 11:25:33;;;;;;;17.95;10.90;;;;;;;;;;4928933;29;20048;-71
2021/03/02 11:27:59;;;;;;;19.48;11.18;;;;;;;;;;4933753;29;20074;-74
2021/03/02 11:30:25;;;;;;;18.05;12.00;;;;;;;;;;4934423;29;20508;-72
2021/03/02 11:32:51;;;;;;;19.38;10.50;;;;;;;;;;4934875;29;21066;-75
2021/03/02 11:35:18;;;;;;;20.35;12.07;;;;;;;;;;4933149;29;20052;-73
2021/03/02 11:37:44;;;;;;;17.08;11.43;;;;;;;;;;4933835;29;20079;-73
2021/03/02 11:40:14;;;;;;;18.88;11.48;;;;;;;;;;4934392;29;20119;-72
2021/03/02 11:42:41;;;;;;;16.38;10.82;;;;;;;;;;4931623;29;20055;-70
2021/03/02 11:45:16;;;;;;;17.08;11.60;;;;;;;;;;4933315;29;20535;-70
2021/03/02 11:47:42;;;;;;;15.90;11.02;;;;;;;;;;4934944;29;20044;-70
2021/03/02 11:50:09;;;;;;;15.98;10.02;;;;;;;;;;4934378;29;20148;-71
2021/03/02 11:52:35;;;;;;;18.35;11.45;;;;;;;;;;4934784;29;20114;-73
2021/03/02 11:55:03;;;;;;;15.63;10.82;;;;;;;;;;4934333;29;20611;-70
2021/03/02 11:57:30;;;;;;;16.77;11.90;;;;;;;;;;4934529;29;20451;-69
2021/03/02 11:59:56;;;;;;;21.27;11.30;;;;;;;;;;4934295;29;20630;-69
2021/03/02 12:02:23;;;;;;;17.83;11.25;;;;;;;;;;4933920;29;20451;-70
2021/03/02 12:04:49;;;;;;;17.02;10.40;;;;;;;;;;4934358;29;20052;-74
2021/03/02 12:07:15;;;;;;;16.77;9.75;;;;;;;;;;4906565;29;20088;-73
2021/03/02 12:09:41;;;;;;;16.92;10.60;;;;;;;;;;4925131;29;20110;-75
2021/03/02 12:12:08;;;;;;;15.65;10.20;;;;;;;;;;4933964;29;20060;-74
2021/03/02 12:14:36;;;;;;;18.30;11.27;;;;;;;;;;4896498;29;20051;-77
2021/03/02 12:17:03;;;;;;;17.83;10.20;;;;;;;;;;4900500;29;20048;-76
2021/03/02 12:19:32;;;;;;;15.00;10.27;;;;;;;;;;4917300;29;20047;-75
2021/03/02 12:21:59;;;;;;;18.20;10.98;;;;;;;;;;4909492;29;20059;-75
2021/03/02 12:24:25;;;;;;;15.85;10.07;;;;;;;;;;4932868;29;20064;-74
2021/03/02 12:26:52;;;;;;;15.48;10.55;;;;;;;;;;4932958;29;20495;-70
2021/03/02 12:29:18;;;;;;;15.63;11.25;;;;;;;;;;4934317;29;20107;-70
2021/03/02 12:31:44;;;;;;;17.08;10.82;;;;;;;;;;4933896;29;20055;-70
2021/03/02 12:34:11;;;;;;;15.68;10.68;;;;;;;;;;4933863;29;20059;-70
2021/03/02 12:36:37;;;;;;;16.98;11.32;;;;;;;;;;4933420;29;20121;-69
2021/03/02 12:39:04;;;;;;;17.23;11.35;;;;;;;;;;4932655;29;20056;-71
2021/03/02 12:41:30;;;;;;;18.67;10.60;;;;;;;;;;4934045;29;20158;-71
2021/03/02 12:43:56;;;;;;;18.67;10.43;;;;;;;;;;4933516;29;20107;-71
2021/03/02 12:46:22;;;;;;;15.82;10.25;;;;;;;;;;4932137;29;20047;-72
2021/03/02 12:48:48;;;;;;;16.40;10.70;;;;;;;;;;4933558;29;20052;-71
2021/03/02 12:51:18;;;;;;;13.88;9.88;;;;;;;;;;4933516;29;20208;-70
2021/03/02 12:53:45;;;;;;;19.15;11.10;;;;;;;;;;4933548;29;20051;-70
2021/03/02 12:56:12;;;;;;;14.80;10.10;;;;;;;;;;4931174;29;20404;-71
2021/03/02 12:58:38;;;;;;;16.00;9.93;;;;;;;;;;4933152;29;20107;-72
2021/03/02 13:01:04;;;;;;;14.65;9.88;;;;;;;;;;4933366;29;20079;-71
2021/03/02 13:03:32;;;;;;;15.48;10.23;;;;;;;;;;4933493;29;20066;-72
2021/03/02 13:06:03;;;;;;;12.52;9.38;;;;;;;;;;4915798;29;20087;-73
2021/03/02 13:08:29;;;;;;;12.82;8.80;;;;;;;;;;4906439;29;20047;-72
2021/03/02 13:10:59;;;;;;;16.17;10.95;;;;;;;;;;4906997;29;20059;-74
2021/03/02 13:13:25;;;;;;;15.25;9.65;;;;;;;;;;4933182;29;20146;-71
2021/03/02 13:15:52;;;;;;;14.75;9.52;;;;;;;;;;4932803;29;20363;-70
2021/03/02 13:18:18;;;;;;;17.63;10.85;;;;;;;;;;4932446;29;20051;-71
2021/03/02 13:20:45;;;;;;;13.07;9.30;;;;;;;;;;4932788;29;20075;-71
2021/03/02 13:23:12;;;;;;;14.88;10.15;;;;;;;;;;4933150;29;20095;-71
2021/03/02 13:25:38;;;;;;;15.75;9.55;;;;;;;;;;4932274;29;20087;-72
2021/03/02 13:28:05;;;;;;;13.65;9.43;;;;;;;;;;4933228;29;20139;-72
2021/03/02 13:30:31;;;;;;;11.85;8.50;;;;;;;;;;4922408;29;20083;-72
2021/03/02 13:33:05;;;;;;;11.65;8.77;;;;;;;;;;4931711;29;20047;-71
2021/03/02 13:35:41;;;;;;;14.10;9.90;;;;;;;;;;4924388;29;20059;-72
2021/03/02 13:38:08;;;;;;;14.63;9.90;;;;;;;;;;4921928;29;20496;-72
2021/03/02 13:40:34;;;;;;;12.27;9.32;;;;;;;;;;4897616;29;20099;-72
2021/03/02 13:43:00;;;;;;;17.23;9.93;;;;;;;;;;4924404;29;20067;-72
2021/03/02 13:45:27;;;;;;;14.52;9.75;;;;;;;;;;4915313;29;20103;-71
2021/03/02 13:47:57;;;;;;;14.27;9.30;;;;;;;;;;4932862;29;20052;-70
2021/03/02 13:50:24;;;;;;;16.00;9.98;;;;;;;;;;4944315;28;20189;-72
2021/03/02 13:52:52;;;;;;;15.55;9.88;;;;;;;;;;4899572;29;20455;-70
2021/03/02 13:55:22;;;;;;;15.27;9.05;;;;;;;;;;4932461;29;20079;-74
2021/03/02 13:57:49;;;;;;;15.48;9.25;;;;;;;;;;4924486;29;20052;-73
2021/03/02 14:00:18;;;;;;;12.48;9.18;;;;;;;;;;4928599;29;20474;-70
2021/03/02 14:02:45;;;;;;;13.25;9.30;;;;;;;;;;4932517;29;20044;-72
2021/03/02 14:05:19;;;;;;;13.60;9.65;;;;;;;;;;4931703;29;20052;-71
2021/03/02 14:07:53;;;;;;;14.93;10.48;;;;;;;;;;4908372;29;20051;-71
2021/03/02 14:10:19;;;;;;;14.82;9.85;;;;;;;;;;4931192;29;20059;-72
2021/03/02 14:12:49;;;;;;;16.13;9.73;;;;;;;;;;4931602;29;20047;-74
2021/03/02 14:15:15;;;;;;;15.48;10.10;;;;;;;;;;4920772;29;20079;-73
2021/03/02 14:17:41;;;;;;;16.48;10.50;;;;;;;;;;4915196;29;20107;-73
2021/03/02 14:20:08;;;;;;;15.95;9.57;;;;;;;;;;4915359;29;20134;-73
2021/03/02 14:22:47;;;;;;;15.60;9.40;;;;;;;;;;4931471;29;20396;-72
2021/03/02 14:25:14;;;;;;;17.75;9.48;;;;;;;;;;4930661;29;20051;-69
2021/03/02 14:27:41;;;;;;;17.50;9.38;;;;;;;;;;4932006;29;20079;-69
2021/03/02 14:30:08;;;;;;;18.23;9.75;;;;;;;;;;4931980;29;20074;-72
2021/03/02 14:32:34;;;;;;;17.60;10.35;;;;;;;;;;4931053;29;20055;-72
2021/03/02 14:35:04;;;;;;;15.75;9.88;;;;;;;;;;4932121;29;20515;-76